Time;durP1;ratioP1;P1;durP2;ratioP2;P2;SDS_P1;SDS_P2;PMS_P1;PMS_P2;Temp;Humidity;BMP_temperature;BMP_pressure;BME280_temperature;BME280_humidity;BME280_pressure;Samples;Min_cycle;Max_cycle;Signal;HPM_P1;HPM_P2
2022/05/02 00:00:18;;;;;;;;;10.25;10.25;;;;;11.17;58.50;102206.59;5064727;28;10601;-68
2022/05/02 00:02:44;;;;;;;;;10.50;8.00;;;;;11.18;58.10;102206.44;5059344;28;10528;-66
2022/05/02 00:05:11;;;;;;;;;7.50;7.50;;;;;11.17;58.02;102206.59;5071889;28;10511;-66
2022/05/02 00:07:38;;;;;;;;;12.25;7.75;;;;;11.12;58.21;102205.22;5070398;28;10360;-66
2022/05/02 00:10:06;;;;;;;;;12.00;10.50;;;;;11.13;58.52;102198.81;5062158;28;10434;-66
2022/05/02 00:12:33;;;;;;;;;8.50;7.50;;;;;11.13;58.21;102200.66;5070800;28;10560;-64
2022/05/02 00:14:59;;;;;;;;;13.50;11.00;;;;;11.10;57.96;102196.47;5070786;28;10420;-66
2022/05/02 00:18:08;;;;;;;;;10.50;9.75;;;;;11.10;58.56;102196.47;5066163;28;11811;-66
2022/05/02 00:20:16;;;;;;;;;14.00;10.75;;;;;11.14;58.44;102202.38;5057500;28;10676;-65
2022/05/02 00:22:42;;;;;;;;;9.50;9.50;;;;;11.16;58.54;102200.34;5069986;28;11319;-65
2022/05/02 00:25:09;;;;;;;;;15.75;15.00;;;;;11.08;57.93;102193.09;5071107;28;10588;-65
2022/05/02 00:27:38;;;;;;;;;10.00;10.00;;;;;10.99;58.27;102193.25;5070464;28;10607;-66
2022/05/02 00:30:07;;;;;;;;;13.50;12.25;;;;;10.86;58.63;102186.47;5068815;28;10587;-65
2022/05/02 00:32:33;;;;;;;;;11.25;10.50;;;;;10.81;59.40;102191.47;5063309;28;10673;-66
2022/05/02 00:35:00;;;;;;;;;9.00;9.00;;;;;10.86;59.33;102186.47;5069488;28;10618;-65
2022/05/02 00:37:26;;;;;;;;;12.25;12.25;;;;;10.91;58.88;102179.75;5070406;28;10521;-66
2022/05/02 00:39:53;;;;;;;;;8.25;8.00;;;;;10.95;58.65;102181.94;5069451;28;10723;-66
2022/05/02 00:42:20;;;;;;;;;10.75;9.75;;;;;10.92;59.76;102181.41;5063013;28;11062;-65
2022/05/02 00:44:46;;;;;;;;;9.50;9.50;;;;;10.93;58.54;102177.72;5068012;28;10516;-66
2022/05/02 00:47:20;;;;;;;;;12.50;11.50;;;;;10.86;59.06;102178.38;5064218;28;10623;-66
2022/05/02 00:49:48;;;;;;;;;10.00;10.00;;;;;10.91;58.72;102169.81;5070192;28;10456;-66
2022/05/02 00:52:16;;;;;;;;;11.50;11.50;;;;;10.94;59.11;102172.19;5058892;28;10523;-65
2022/05/02 00:54:43;;;;;;;;;9.75;9.75;;;;;10.97;59.05;102171.00;5070663;28;10632;-67
2022/05/02 00:57:15;;;;;;;;;9.50;8.25;;;;;10.98;59.10;102169.97;5061106;28;10563;-65
2022/05/02 00:59:42;;;;;;;;;9.00;7.00;;;;;10.99;59.17;102172.53;5068260;28;10481;-65
2022/05/02 01:02:12;;;;;;;;;10.00;7.25;;;;;10.99;58.61;102172.53;5061736;28;10414;-65
2022/05/02 01:04:39;;;;;;;;;12.75;12.75;;;;;10.99;58.96;102169.00;5059703;28;11386;-65
2022/05/02 01:07:11;;;;;;;;;9.50;7.75;;;;;10.98;58.60;102168.16;5067917;28;10680;-65
2022/05/02 01:09:42;;;;;;;;;11.75;11.00;;;;;10.93;58.95;102161.56;5070798;28;11232;-67
2022/05/02 01:12:21;;;;;;;;;9.50;8.75;;;;;10.87;58.84;102171.97;5067231;28;10834;-66
2022/05/02 01:14:52;;;;;;;;;12.00;12.00;;;;;10.82;59.03;102168.09;5065622;28;10539;-64
2022/05/02 01:17:18;;;;;;;;;9.00;9.00;;;;;10.76;59.73;102161.50;5068842;28;10772;-64
2022/05/02 01:19:45;;;;;;;;;14.50;12.75;;;;;10.71;59.52;102166.53;5069326;28;10630;-66
2022/05/02 01:22:12;;;;;;;;;10.75;10.50;;;;;10.68;60.03;102172.25;5069685;28;10849;-65
2022/05/02 01:24:44;;;;;;;;;13.50;13.50;;;;;10.63;59.54;102167.34;5066205;28;10822;-65
2022/05/02 01:27:13;;;;;;;;;17.00;12.25;;;;;10.59;59.64;102160.59;5064416;28;10855;-64
2022/05/02 01:29:42;;;;;;;;;15.25;15.00;;;;;10.55;59.63;102164.63;5064440;28;10799;-66
2022/05/02 01:32:12;;;;;;;;;12.00;11.00;;;;;10.52;59.56;102158.72;5068816;28;10929;-65
2022/05/02 01:34:42;;;;;;;;;13.25;11.25;;;;;10.47;59.78;102161.06;5066851;28;10841;-65
2022/05/02 01:37:11;;;;;;;;;13.50;11.00;;;;;10.45;59.90;102158.53;5069447;28;10828;-66
2022/05/02 01:39:38;;;;;;;;;12.00;7.00;;;;;10.42;60.91;102158.84;5064465;28;10706;-66
2022/05/02 01:42:07;;;;;;;;;12.25;12.25;;;;;10.37;60.77;102162.03;5062479;28;10660;-66
2022/05/02 01:44:34;;;;;;;;;8.25;7.00;;;;;10.35;60.69;102153.25;5068766;28;10774;-66
2022/05/02 01:47:01;;;;;;;;;12.00;12.00;;;;;10.31;60.63;102151.03;5064207;28;10753;-66
2022/05/02 01:49:28;;;;;;;;;13.25;13.25;;;;;10.26;60.21;102156.91;5063712;28;10768;-66
2022/05/02 01:51:57;;;;;;;;;11.75;11.00;;;;;10.23;60.87;102148.28;5066194;28;10916;-65
2022/05/02 01:54:25;;;;;;;;;8.75;8.00;;;;;10.20;60.71;102148.59;5070161;28;10978;-66
2022/05/02 01:56:52;;;;;;;;;14.50;13.75;;;;;10.18;61.35;102151.44;5068254;28;10686;-66
2022/05/02 01:59:19;;;;;;;;;12.00;12.00;;;;;10.16;60.88;102148.06;5068002;28;11681;-69
2022/05/02 02:01:46;;;;;;;;;13.75;11.75;;;;;10.14;61.21;102140.16;5064848;28;10816;-68
2022/05/02 02:06:57;;;;;;;;;9.75;9.00;;;;;10.10;61.01;102136.09;5073050;28;10877;-66
2022/05/02 02:09:24;;;;;;;;;17.00;15.50;;;;;10.07;61.07;102133.72;5068084;28;10856;-67
2022/05/02 02:11:51;;;;;;;;;14.00;10.50;;;;;10.04;61.39;102135.88;5066241;28;11632;-67
2022/05/02 02:14:17;;;;;;;;;16.50;12.25;;;;;10.01;61.41;102141.59;5074062;28;10930;-66
2022/05/02 02:16:44;;;;;;;;;15.50;15.50;;;;;9.99;61.73;102143.59;5068793;28;11761;-66
2022/05/02 02:19:10;;;;;;;;;11.25;11.00;;;;;9.97;61.45;102140.22;5071550;28;13269;-67
2022/05/02 02:21:37;;;;;;;;;14.00;10.50;;;;;9.95;60.87;102140.38;5065775;28;10927;-66
2022/05/02 02:24:04;;;;;;;;;12.00;10.50;;;;;9.94;61.24;102133.31;5067398;28;10881;-66
2022/05/02 02:26:32;;;;;;;;;10.50;10.50;;;;;9.93;61.59;102128.94;5071948;28;10751;-66
2022/05/02 02:28:59;;;;;;;;;13.75;12.00;;;;;9.93;61.98;102130.78;5071926;28;11074;-67
2022/05/02 02:31:25;;;;;;;;;11.00;11.00;;;;;9.89;61.32;102131.09;5071142;28;10913;-65
2022/05/02 02:33:52;;;;;;;;;16.50;14.00;;;;;9.90;60.89;102135.47;5071321;28;10860;-67
2022/05/02 02:36:18;;;;;;;;;10.50;9.50;;;;;9.86;61.50;102133.25;5070259;28;11672;-67
2022/05/02 02:38:45;;;;;;;;;13.25;12.00;;;;;9.82;61.36;102130.03;5063831;28;10812;-66
2022/05/02 02:41:11;;;;;;;;;10.00;10.00;;;;;9.80;61.64;102131.19;5069038;28;11033;-66
2022/05/02 02:43:38;;;;;;;;;12.50;11.00;;;;;9.77;61.51;102132.38;5065697;28;11090;-67
2022/05/02 02:46:04;;;;;;;;;15.00;14.00;;;;;9.75;61.63;102130.81;5063635;28;10983;-66
2022/05/02 02:48:31;;;;;;;;;10.50;8.00;;;;;9.72;61.52;102131.97;5068989;28;10828;-64
2022/05/02 02:51:00;;;;;;;;;12.50;12.25;;;;;9.71;61.35;102127.59;5072494;28;10941;-67
2022/05/02 02:53:27;;;;;;;;;16.00;14.50;;;;;9.68;61.89;102135.97;5066141;28;11061;-67
2022/05/02 02:55:53;;;;;;;;;12.00;10.25;;;;;9.62;62.08;102124.00;5069420;28;11151;-65
2022/05/02 02:58:19;;;;;;;;;9.50;8.25;;;;;9.62;62.23;102124.00;5063482;28;10935;-66
2022/05/02 03:00:46;;;;;;;;;13.00;11.50;;;;;9.61;61.71;102127.72;5064689;28;11006;-66
2022/05/02 03:03:13;;;;;;;;;16.25;13.00;;;;;9.57;62.33;102118.28;5063722;28;11011;-65
2022/05/02 03:08:24;;;;;;;;;16.00;14.00;;;;;9.52;62.02;102112.53;5068548;28;10948;-66
2022/05/02 03:10:52;;;;;;;;;11.50;9.50;;;;;9.49;62.33;102118.22;5071165;28;10915;-66
2022/05/02 03:13:18;;;;;;;;;10.50;10.50;;;;;9.47;62.56;102101.38;5067179;28;10989;-66
2022/05/02 03:15:45;;;;;;;;;10.25;10.25;;;;;9.46;62.15;102118.50;5071298;28;10985;-66
2022/05/02 03:18:11;;;;;;;;;7.75;7.75;;;;;9.44;62.65;102109.78;5069554;28;11153;-65
2022/05/02 03:20:38;;;;;;;;;11.75;11.50;;;;;9.43;62.65;102120.66;5068372;28;11080;-65
2022/05/02 03:23:04;;;;;;;;;12.00;12.00;;;;;9.40;62.33;102114.63;5064447;28;11735;-66
2022/05/02 03:25:31;;;;;;;;;11.50;10.50;;;;;9.39;62.08;102104.84;5067215;28;10920;-64
2022/05/02 03:27:57;;;;;;;;;13.50;11.25;;;;;9.37;62.32;102106.84;5071544;28;10911;-65
2022/05/02 03:30:24;;;;;;;;;12.75;12.75;;;;;9.35;62.19;102114.22;5079136;28;11087;-66
2022/05/02 03:32:51;;;;;;;;;13.75;13.25;;;;;9.31;62.63;102112.84;5063960;28;10994;-65
2022/05/02 03:35:18;;;;;;;;;12.50;11.00;;;;;9.30;62.43;102111.16;5070034;28;11233;-65
2022/05/02 03:37:44;;;;;;;;;18.25;14.75;;;;;9.28;62.79;102110.47;5065753;28;11062;-66
2022/05/02 03:40:11;;;;;;;;;13.50;12.75;;;;;9.26;62.32;102108.94;5066107;28;11093;-67
2022/05/02 03:42:38;;;;;;;;;13.25;12.75;;;;;9.25;62.31;102112.63;5061069;28;11032;-66
2022/05/02 03:45:06;;;;;;;;;14.75;14.75;;;;;9.22;62.28;102108.38;5069332;28;11108;-65
2022/05/02 03:47:33;;;;;;;;;14.75;10.50;;;;;9.19;62.89;102111.38;5070154;28;11305;-66
2022/05/02 03:50:00;;;;;;;;;13.00;11.50;;;;;9.20;62.77;102101.50;5064808;28;11153;-66
2022/05/02 03:52:27;;;;;;;;;16.75;13.25;;;;;9.19;62.55;102099.78;5066008;28;10994;-67
2022/05/02 03:54:53;;;;;;;;;16.75;14.00;;;;;9.18;62.91;102106.19;5071028;28;11229;-67
2022/05/02 03:57:20;;;;;;;;;12.75;10.00;;;;;9.15;62.65;102110.88;5069016;28;11173;-67
2022/05/02 03:59:47;;;;;;;;;11.50;10.50;;;;;9.13;62.16;102112.00;5064781;28;11346;-65
2022/05/02 04:02:14;;;;;;;;;17.00;13.25;;;;;9.11;62.05;102106.78;5065871;28;11104;-64
2022/05/02 04:04:40;;;;;;;;;14.25;13.75;;;;;9.10;62.87;102106.94;5068767;28;11788;-64
2022/05/02 04:07:07;;;;;;;;;13.50;12.50;;;;;9.10;62.45;102113.16;5070112;28;11471;-64
2022/05/02 04:09:34;;;;;;;;;13.25;11.00;;;;;9.08;62.24;102115.16;5072403;28;11056;-62
2022/05/02 04:12:01;;;;;;;;;8.75;8.75;;;;;9.07;62.56;102117.97;5065375;28;11173;-64
2022/05/02 04:14:27;;;;;;;;;15.50;12.75;;;;;9.06;62.42;102114.44;5069731;28;10953;-63
2022/05/02 04:16:54;;;;;;;;;22.25;14.25;;;;;9.05;62.66;102115.47;5069317;28;11236;-63
2022/05/02 04:19:20;;;;;;;;;9.50;9.50;;;;;9.04;62.61;102123.69;5071349;28;11546;-63
2022/05/02 04:21:47;;;;;;;;;14.75;14.50;;;;;9.02;62.63;102117.59;5065050;28;10911;-66
2022/05/02 04:24:14;;;;;;;;;14.75;14.75;;;;;9.01;62.94;102130.19;5070483;28;11482;-62
2022/05/02 04:26:41;;;;;;;;;12.75;11.00;;;;;8.99;63.13;102116.06;5070982;28;11185;-63
2022/05/02 04:29:07;;;;;;;;;12.25;12.00;;;;;8.97;62.60;102112.69;5065632;28;11238;-62
2022/05/02 04:31:34;;;;;;;;;20.00;11.50;;;;;8.98;63.04;102116.22;5068802;28;11075;-62
2022/05/02 04:34:00;;;;;;;;;13.75;13.75;;;;;8.96;63.19;102111.00;5062550;28;11486;-62
2022/05/02 04:36:27;;;;;;;;;13.00;11.75;;;;;8.96;62.99;102121.75;5070552;28;11495;-64
2022/05/02 04:38:53;;;;;;;;;17.00;14.75;;;;;8.97;62.92;102109.16;5071336;28;11526;-63
2022/05/02 04:41:24;;;;;;;;;13.75;10.00;;;;;8.98;63.27;102111.69;5067046;28;11565;-63
2022/05/02 04:43:52;;;;;;;;;11.50;11.25;;;;;9.02;63.69;102114.91;5065542;28;11879;-65
2022/05/02 04:46:20;;;;;;;;;15.25;15.00;;;;;9.00;63.52;102114.25;5060701;28;11170;-63
2022/05/02 04:48:46;;;;;;;;;13.25;12.50;;;;;9.02;63.79;102114.91;5061081;28;11479;-63
2022/05/02 04:51:13;;;;;;;;;18.50;16.50;;;;;9.03;64.24;102117.44;5066368;28;11169;-62
2022/05/02 04:53:39;;;;;;;;;16.25;13.75;;;;;9.04;63.90;102115.63;5051033;28;11549;-63
2022/05/02 04:56:06;;;;;;;;;14.75;14.25;;;;;9.06;63.90;102111.78;5054264;28;11293;-64
2022/05/02 04:58:32;;;;;;;;;10.50;10.50;;;;;9.14;63.69;102121.75;5070581;28;11208;-64
2022/05/02 05:00:59;;;;;;;;;16.50;13.50;;;;;9.29;63.75;102114.84;5067794;28;11178;-62
2022/05/02 05:03:25;;;;;;;;;14.00;14.00;;;;;9.62;63.49;102115.94;5058623;28;11558;-61
2022/05/02 05:05:54;;;;;;;;;13.75;12.75;;;;;9.86;62.42;102112.59;5064835;28;11171;-63
2022/05/02 05:08:20;;;;;;;;;14.00;11.50;;;;;10.00;62.08;102118.38;5070491;28;10897;-64
2022/05/02 05:11:00;;;;;;;;;17.50;14.75;;;;;10.11;61.47;102121.63;5062921;28;10863;-62
2022/05/02 05:13:38;;;;;;;;;16.25;15.25;;;;;10.24;61.89;102121.19;5062346;28;10932;-65
2022/05/02 05:16:24;;;;;;;;;14.75;14.75;;;;;10.30;61.54;102122.44;5051933;28;11093;-64
2022/05/02 05:19:03;;;;;;;;;19.50;17.00;;;;;10.34;61.21;102119.28;5050206;28;10947;-65
2022/05/02 05:21:47;;;;;;;;;17.50;13.00;;;;;10.42;61.37;102125.72;5058027;28;11052;-64
2022/05/02 05:24:47;;;;;;;;;14.25;12.75;;;;;10.52;61.58;102129.94;5064452;28;10917;-64
2022/05/02 05:27:31;;;;;;;;;15.00;12.00;;;;;10.61;61.05;102128.13;5067355;28;10880;-64
2022/05/02 05:30:09;;;;;;;;;14.50;14.25;;;;;10.68;61.01;102126.47;5065834;28;11308;-63
2022/05/02 05:33:00;;;;;;;;;15.00;14.25;;;;;10.73;60.98;102125.97;5065613;28;10661;-65
2022/05/02 05:35:57;;;;;;;;;13.50;12.25;;;;;10.77;61.56;102122.78;5063070;28;11715;-64
2022/05/02 05:38:57;;;;;;;;;14.50;14.00;;;;;10.78;60.94;102126.34;5049965;28;10942;-64
2022/05/02 05:42:02;;;;;;;;;13.75;13.75;;;;;10.79;60.90;102130.72;5060300;28;10714;-65
2022/05/02 05:44:53;;;;;;;;;18.75;16.25;;;;;10.71;61.11;102128.84;5067863;28;10699;-64
2022/05/02 05:47:32;;;;;;;;;23.00;21.00;;;;;10.60;61.43;102129.13;5065914;28;10823;-64
2022/05/02 05:50:22;;;;;;;;;22.25;20.00;;;;;10.55;62.04;102132.31;5066708;28;10958;-63
2022/05/02 05:53:00;;;;;;;;;23.00;19.75;;;;;10.52;62.96;102132.63;5049906;28;11665;-64
2022/05/02 05:55:37;;;;;;;;;14.75;14.75;;;;;10.62;62.78;102136.03;5048420;28;10628;-64
2022/05/02 05:58:34;;;;;;;;;22.50;16.00;;;;;10.78;62.56;102140.66;5069477;28;10523;-63
2022/05/02 06:01:10;;;;;;;;;15.25;13.25;;;;;11.00;62.48;102141.03;5066885;28;10754;-62
2022/05/02 06:03:58;;;;;;;;;14.25;14.25;;;;;11.24;61.52;102132.97;5050211;28;10534;-64
2022/05/02 06:06:28;;;;;;;;;15.25;15.25;;;;;11.42;60.68;102140.91;5056275;28;10654;-64
2022/05/02 06:08:58;;;;;;;;;19.50;15.50;;;;;11.60;60.49;102129.97;5067727;28;10766;-65
2022/05/02 06:11:26;;;;;;;;;13.25;11.75;;;;;11.80;59.95;102133.16;5069132;28;10432;-64
2022/05/02 06:13:55;;;;;;;;;12.50;11.75;;;;;12.05;59.62;102133.97;5069854;28;10456;-65
2022/05/02 06:19:17;;;;;;;;;9.75;9.50;;;;;12.37;58.55;102131.19;5049709;28;10460;-65
2022/05/02 06:21:44;;;;;;;;;15.50;14.50;;;;;12.53;58.12;102129.44;5058497;28;10316;-66
2022/05/02 06:24:13;;;;;;;;;24.00;20.75;;;;;12.54;56.59;102131.94;5068732;28;10302;-66
2022/05/02 06:26:43;;;;;;;;;22.00;18.50;;;;;12.49;56.85;102128.09;5069185;28;11155;-66
2022/05/02 06:29:11;;;;;;;;;16.25;16.00;;;;;12.49;57.54;102128.09;5069651;28;10478;-65
2022/05/02 06:31:44;;;;;;;;;20.50;16.00;;;;;12.53;56.89;102129.44;5061976;28;10400;-63
2022/05/02 06:34:15;;;;;;;;;19.75;17.75;;;;;12.59;56.71;102131.41;5049861;28;10472;-64
2022/05/02 06:36:42;;;;;;;;;15.00;13.25;;;;;12.66;56.59;102131.56;5057919;28;10443;-64
2022/05/02 06:39:45;;;;;;;;;17.75;17.00;;;;;12.65;56.19;102138.00;5068791;28;10224;-65
2022/05/02 06:42:14;;;;;;;;;16.25;15.50;;;;;12.60;56.15;102133.13;5068779;28;10456;-63
2022/05/02 06:45:21;;;;;;;;;22.50;21.25;;;;;12.58;56.24;102143.25;5069325;28;11102;-63
2022/05/02 06:48:03;;;;;;;;;19.00;16.50;;;;;12.59;55.67;102140.34;5068748;28;10615;-63
2022/05/02 06:50:36;;;;;;;;;16.00;15.00;;;;;12.49;55.83;102128.94;5072381;28;10303;-62
2022/05/02 06:53:24;;;;;;;;;12.25;11.75;;;;;12.56;56.80;102132.63;5071887;28;10306;-65
2022/05/02 06:56:01;;;;;;;;;16.75;14.75;;;;;12.60;56.78;102131.25;5065877;28;10384;-65
2022/05/02 06:58:39;;;;;;;;;12.00;10.75;;;;;12.63;55.98;102130.88;5059871;28;10301;-65
2022/05/02 07:01:08;;;;;;;;;17.75;15.75;;;;;12.67;55.84;102135.94;5073960;28;10226;-64
2022/05/02 07:03:50;;;;;;;;;17.50;17.50;;;;;12.64;55.31;102129.06;5053092;28;10151;-61
2022/05/02 07:06:46;;;;;;;;;21.75;18.00;;;;;12.56;55.95;102135.31;5058533;28;10116;-65
2022/05/02 07:09:43;;;;;;;;;16.00;15.75;;;;;12.51;56.43;102139.56;5072751;28;10362;-64
2022/05/02 07:12:22;;;;;;;;;13.00;11.00;;;;;12.55;56.31;102135.50;5071423;28;10445;-65
2022/05/02 07:15:26;;;;;;;;;13.25;11.75;;;;;12.65;55.26;102130.72;5071710;28;10227;-64
2022/05/02 07:18:05;;;;;;;;;18.75;18.00;;;;;12.67;54.66;102131.38;5052316;28;10142;-65
2022/05/02 07:20:48;;;;;;;;;16.00;16.00;;;;;12.70;55.31;102127.50;5051333;28;11295;-65
2022/05/02 07:23:33;;;;;;;;;19.00;17.75;;;;;12.72;56.12;102129.00;5052622;28;10325;-65
2022/05/02 07:26:07;;;;;;;;;17.00;15.25;;;;;12.76;56.33;102129.47;5052311;28;10346;-65
2022/05/02 07:28:40;;;;;;;;;17.00;13.50;;;;;12.83;55.73;102136.69;5052127;28;10235;-64
2022/05/02 07:31:09;;;;;;;;;14.00;13.50;;;;;12.95;55.43;102131.72;5063924;28;10205;-64
2022/05/02 07:33:38;;;;;;;;;17.00;14.50;;;;;13.05;55.76;102135.06;5071694;28;10037;-63
2022/05/02 07:36:06;;;;;;;;;13.75;13.50;;;;;13.08;55.98;102137.41;5072306;28;10248;-63
2022/05/02 07:38:34;;;;;;;;;15.25;13.75;;;;;13.10;56.48;102137.22;5071716;28;10215;-64
2022/05/02 07:41:25;;;;;;;;;16.00;15.00;;;;;13.09;56.86;102136.38;5071277;28;10328;-65
2022/05/02 07:43:59;;;;;;;;;20.00;19.50;;;;;13.12;56.56;102140.56;5071584;28;10239;-64
2022/05/02 07:46:29;;;;;;;;;16.50;14.25;;;;;13.02;56.60;102143.53;5071864;28;10394;-62
2022/05/02 07:48:58;;;;;;;;;24.75;21.00;;;;;12.96;57.04;102136.09;5071481;28;10318;-64
2022/05/02 07:51:25;;;;;;;;;18.00;16.75;;;;;12.96;57.51;102135.28;5072017;28;10536;-63
2022/05/02 07:53:53;;;;;;;;;25.00;19.50;;;;;12.97;57.16;102139.69;5071962;28;10389;-63
2022/05/02 07:56:24;;;;;;;;;16.75;16.75;;;;;13.03;57.25;102133.53;5070832;28;10989;-63
2022/05/02 07:58:53;;;;;;;;;14.00;13.75;;;;;13.12;57.32;102132.47;5071460;28;10230;-65
2022/05/02 08:01:24;;;;;;;;;16.25;14.50;;;;;13.25;57.33;102137.34;5070849;28;10196;-63
2022/05/02 08:03:52;;;;;;;;;21.75;18.50;;;;;13.26;56.81;102133.59;5064139;28;10250;-63
2022/05/02 08:06:37;;;;;;;;;22.00;17.25;;;;;13.19;57.02;102138.00;5051944;28;10211;-63
2022/05/02 08:09:20;;;;;;;;;20.00;18.50;;;;;13.20;56.84;102136.97;5056401;28;10077;-65
2022/05/02 08:11:55;;;;;;;;;19.75;17.25;;;;;13.30;57.19;102135.75;5052115;28;10252;-62
2022/05/02 08:14:36;;;;;;;;;22.25;21.50;;;;;13.43;57.20;102134.31;5051528;28;10311;-64
2022/05/02 08:17:14;;;;;;;;;25.75;18.75;;;;;13.52;56.42;102135.91;5051473;28;10368;-64
2022/05/02 08:20:01;;;;;;;;;16.25;15.50;;;;;13.52;56.42;102144.03;5054406;28;10533;-66
2022/05/02 08:28:56;;;;;;;;;16.50;15.50;;;;;13.63;55.99;102137.34;5050710;28;10222;-64
2022/05/02 08:31:41;;;;;;;;;26.00;23.00;;;;;13.68;55.60;102135.78;5051245;28;10056;-61
2022/05/02 08:34:50;;;;;;;;;17.50;15.25;;;;;13.60;56.38;102138.56;5058110;28;10426;-62
2022/05/02 08:37:47;;;;;;;;;20.25;16.50;;;;;13.64;56.40;102134.44;5068902;28;10087;-62
2022/05/02 08:40:22;;;;;;;;;21.25;21.00;;;;;13.68;55.41;102132.22;5051559;28;9931;-64
2022/05/02 08:42:54;;;;;;;;;16.75;14.25;;;;;13.63;55.84;102137.34;5050806;28;10264;-65
2022/05/02 08:46:18;;;;;;;;;22.00;20.25;;;;;13.76;55.37;102130.28;5050644;28;10381;-65
2022/05/02 08:52:34;;;;;;;;;26.00;20.75;;;;;13.84;55.12;102141.03;5070713;28;10061;-65
2022/05/02 08:55:12;;;;;;;;;19.50;19.50;;;;;13.81;55.28;102136.00;5050463;28;10334;-65
2022/05/02 08:57:53;;;;;;;;;22.00;21.50;;;;;13.86;54.29;102130.03;5050386;28;10235;-65
2022/05/02 09:00:35;;;;;;;;;24.50;22.50;;;;;13.96;55.12;102135.16;5058144;28;10215;-64
2022/05/02 09:03:23;;;;;;;;;31.50;26.00;;;;;13.98;55.55;102136.69;5066144;28;10259;-65
2022/05/02 09:06:11;;;;;;;;;23.00;20.50;;;;;13.98;56.08;102131.25;5052315;28;10535;-64
2022/05/02 09:09:12;;;;;;;;;24.50;22.00;;;;;14.15;56.17;102136.50;5052759;28;10257;-65
2022/05/02 09:12:09;;;;;;;;;16.00;15.00;;;;;14.22;55.31;102127.44;5069902;28;10202;-64
2022/05/02 09:14:57;;;;;;;;;20.75;20.00;;;;;14.32;54.15;102130.72;5069578;28;9982;-65
2022/05/02 09:18:11;;;;;;;;;20.25;20.00;;;;;14.37;54.07;102129.31;5070427;28;10124;-65
2022/05/02 09:20:53;;;;;;;;;17.75;14.50;;;;;14.36;52.50;102131.16;5050743;28;10832;-62
2022/05/02 09:23:34;;;;;;;;;16.00;14.25;;;;;14.42;52.77;102129.56;5050296;28;9815;-64
2022/05/02 09:26:27;;;;;;;;;20.75;17.50;;;;;14.52;53.08;102124.75;5057147;28;9863;-64
2022/05/02 09:29:21;;;;;;;;;18.00;14.25;;;;;14.75;53.24;102120.03;5070144;28;9879;-63
2022/05/02 09:32:08;;;;;;;;;21.50;15.25;;;;;14.92;49.95;102125.22;5056964;28;9659;-62
2022/05/02 09:34:36;;;;;;;;;13.75;13.50;;;;;14.88;49.89;102121.22;5059252;28;9951;-64
2022/05/02 09:37:05;;;;;;;;;11.00;10.50;;;;;15.01;50.44;102121.34;5054082;28;9699;-64
2022/05/02 09:39:47;;;;;;;;;16.00;15.25;;;;;15.13;50.41;102122.53;5050437;28;9629;-63
2022/05/02 09:42:24;;;;;;;;;17.75;16.00;;;;;15.17;49.45;102122.97;5050090;28;9806;-64
2022/05/02 09:51:24;;;;;;;;;15.25;15.25;;;;;15.16;48.27;102121.31;5007834;28;9702;-63
2022/05/02 09:54:08;;;;;;;;;17.75;17.00;;;;;15.11;48.27;102121.91;5062333;28;9707;-64
2022/05/02 09:56:44;;;;;;;;;15.25;13.50;;;;;15.07;49.12;102121.44;5070050;28;9672;-65
2022/05/02 09:59:28;;;;;;;;;17.00;15.50;;;;;15.09;47.68;102126.66;5069692;28;9610;-65
2022/05/02 10:02:05;;;;;;;;;16.75;16.00;;;;;15.03;47.17;102122.03;5070385;28;9625;-64
2022/05/02 10:04:44;;;;;;;;;14.25;11.25;;;;;14.99;47.68;102118.84;5069052;28;9783;-65
2022/05/02 10:07:11;;;;;;;;;15.50;13.00;;;;;14.99;46.88;102118.84;5069813;28;9608;-66
2022/05/02 10:09:55;;;;;;;;;16.00;15.50;;;;;14.97;47.13;102118.19;5070285;28;9611;-66
2022/05/02 10:12:53;;;;;;;;;12.00;12.00;;;;;14.96;46.99;102123.81;5069147;28;9736;-65
2022/05/02 10:15:28;;;;;;;;;12.25;12.25;;;;;15.00;45.60;102120.53;5069562;28;9731;-64
2022/05/02 10:18:17;;;;;;;;;15.75;15.00;;;;;14.94;46.33;102120.44;5068621;28;9776;-65
2022/05/02 10:21:09;;;;;;;;;18.50;14.50;;;;;14.97;46.71;102115.47;5069999;28;9632;-66
2022/05/02 10:24:03;;;;;;;;;9.75;9.75;;;;;15.13;45.82;102108.13;5070443;28;9597;-66
2022/05/02 10:26:41;;;;;;;;;12.00;12.00;;;;;15.32;44.53;102105.63;5073860;28;9587;-62
2022/05/02 10:29:38;;;;;;;;;16.50;15.25;;;;;15.41;44.25;102110.91;5073230;28;9529;-65
2022/05/02 10:32:27;;;;;;;;;11.00;9.75;;;;;15.42;44.43;102107.97;5061713;28;9601;-65
2022/05/02 10:34:56;;;;;;;;;13.00;9.00;;;;;15.49;45.05;102105.34;5053183;28;9462;-65
2022/05/02 10:37:32;;;;;;;;;13.50;13.50;;;;;15.59;43.61;102106.66;5052930;28;9628;-66
2022/05/02 10:40:15;;;;;;;;;11.75;10.25;;;;;15.61;43.23;102098.34;5053480;28;10292;-66
2022/05/02 10:42:50;;;;;;;;;13.25;10.75;;;;;15.59;44.73;102108.53;5053352;28;9505;-66
2022/05/02 10:45:18;;;;;;;;;17.00;14.50;;;;;15.69;43.76;102094.66;5054508;28;9456;-66
2022/05/02 10:47:52;;;;;;;;;15.00;13.75;;;;;15.71;43.72;102093.41;5053971;28;9373;-66
2022/05/02 10:50:37;;;;;;;;;30.50;30.50;;;;;15.73;43.82;102090.53;5053908;28;9641;-66
2022/05/02 10:53:31;;;;;;;;;11.25;9.50;;;;;15.80;43.06;102103.13;5073094;28;10221;-67
2022/05/02 10:56:22;;;;;;;;;12.75;11.75;;;;;15.78;43.81;102090.75;5071904;28;9498;-67
2022/05/02 10:58:52;;;;;;;;;14.00;12.00;;;;;15.77;41.06;102100.78;5072462;28;9524;-67
2022/05/02 11:01:21;;;;;;;;;10.75;9.75;;;;;15.64;42.21;102102.50;5072932;28;9442;-65
2022/05/02 11:04:19;;;;;;;;;14.25;13.50;;;;;15.64;43.60;102092.53;5072999;28;9432;-67
2022/05/02 11:06:51;;;;;;;;;14.50;12.25;;;;;15.68;43.39;102087.56;5056844;28;9545;-68
2022/05/02 11:09:45;;;;;;;;;10.75;10.75;;;;;15.63;44.21;102092.69;5068709;28;9503;-67
2022/05/02 11:12:15;;;;;;;;;11.00;11.00;;;;;15.75;44.70;102086.56;5042733;28;10217;-68
2022/05/02 11:15:14;;;;;;;;;13.75;12.50;;;;;15.87;42.85;102083.31;5052249;28;9433;-66
2022/05/02 11:18:08;;;;;;;;;6.33;6.33;;;;;15.96;43.47;102090.25;5072025;28;10239;-67
2022/05/02 11:20:46;;;;;;;;;10.33;10.33;;;;;16.10;42.53;102078.44;5072771;28;9449;-67
2022/05/02 11:23:30;;;;;;;;;8.67;8.00;;;;;16.07;41.02;102076.94;5072373;28;9377;-66
2022/05/02 11:26:33;;;;;;;;;7.75;7.75;;;;;16.05;41.48;102081.75;5056852;28;9375;-65
2022/05/02 11:29:49;;;;;;;;;8.50;8.50;;;;;16.04;41.00;102080.09;5046344;28;9363;-65
2022/05/02 11:32:50;;;;;;;;;5.00;5.00;;;;;15.96;41.38;102073.94;5052110;28;9450;-66
2022/05/02 11:35:30;;;;;;;;;10.00;10.00;;;;;15.96;41.05;102074.81;5051409;28;9482;-65
2022/05/02 11:38:28;;;;;;;;;10.33;10.33;;;;;15.92;41.31;102075.38;5051958;28;9456;-65
2022/05/02 11:40:59;;;;;;;;;11.25;8.25;;;;;15.88;38.97;102069.53;5071790;28;9394;-67
2022/05/02 11:43:30;;;;;;;;;9.67;7.00;;;;;15.76;41.04;102069.25;5071671;28;10226;-66
2022/05/02 11:46:01;;;;;;;;;7.67;7.00;;;;;15.86;40.14;102074.31;5065154;28;9315;-66
2022/05/02 11:48:45;;;;;;;;;10.00;8.67;;;;;16.00;39.32;102064.38;5068646;28;9304;-67
2022/05/02 11:51:31;;;;;;;;;8.67;8.67;;;;;15.94;39.84;102057.88;5072184;28;9218;-65
2022/05/02 11:53:58;;;;;;;;;6.00;6.00;;;;;16.10;39.59;102064.84;5051183;28;9265;-64
2022/05/02 11:56:40;;;;;;;;;7.50;7.50;;;;;16.17;38.83;102073.03;5052724;28;9142;-65
2022/05/02 11:59:12;;;;;;;;;8.00;7.00;;;;;16.09;37.85;102065.91;5072202;28;9563;-66
2022/05/02 12:01:41;;;;;;;;;6.00;6.00;;;;;16.09;39.38;102065.91;5071590;28;9373;-67
2022/05/02 12:04:15;;;;;;;;;6.33;5.33;;;;;16.28;39.34;102067.00;5080484;28;9227;-66
2022/05/02 12:07:02;;;;;;;;;6.00;6.00;;;;;16.48;37.33;102067.09;5091725;28;9360;-67
2022/05/02 12:09:32;;;;;;;;;10.00;7.33;;;;;16.45;37.70;102056.66;5091899;28;9280;-66
2022/05/02 12:12:04;;;;;;;;;8.00;6.33;;;;;16.40;37.97;102061.84;5091911;28;9292;-67
2022/05/02 12:14:31;;;;;;;;;6.00;6.00;;;;;16.37;37.79;102057.66;5053229;28;9154;-67